Аэропорт: Львов имени Даниила Галицкого. Львов

ICAO: UKLL

METAR:
2019-09-21 16:00:00
UKLL 211600Z 27003MPS CAVOK 14/07 Q1023 R31/D NOSIG
METAR:
2019-09-21 11:04:00
TAF UKLL 211104Z 2112/2212 27006G12MPS 9999 BKN020 TX16/2212Z TN03/2203Z TEMPO 2112/2118 BKN007 BKN025CB BECMG 2118/2119 27005MPS 3000 BR BKN007 BECMG 2206/2207 28005G10MPS 9999 NSW BKN020